Time;durP1;ratioP1;P1;durP2;ratioP2;P2;SDS_P1;SDS_P2;PMS_P1;PMS_P2;Temp;Humidity;BMP_temperature;BMP_pressure;BME280_temperature;BME280_humidity;BME280_pressure;Samples;Min_cycle;Max_cycle;Signal;HPM_P1;HPM_P2
2023/02/08 00:01:14;;;;;;;7.60;2.42;;;-2.70;88.50;;;;;;5047395;28;20449;-68
2023/02/08 00:03:41;;;;;;;1.27;1.27;;;-2.80;88.30;;;;;;5048684;28;20276;-69
2023/02/08 00:06:09;;;;;;;1.23;1.23;;;-2.80;88.50;;;;;;5048420;28;20602;-67
2023/02/08 00:08:36;;;;;;;0.50;0.50;;;-2.80;88.90;;;;;;5046943;28;20227;-68
2023/02/08 00:11:04;;;;;;;1.48;1.38;;;-2.80;88.80;;;;;;5048019;28;20222;-69
2023/02/08 00:13:33;;;;;;;0.93;0.93;;;-2.80;88.10;;;;;;5047295;28;20297;-69
2023/02/08 00:16:00;;;;;;;1.00;1.00;;;-2.80;90.90;;;;;;5047030;28;20255;-69
2023/02/08 00:18:27;;;;;;;0.95;0.88;;;-2.90;88.50;;;;;;5046857;28;20197;-69
2023/02/08 00:20:56;;;;;;;1.17;1.13;;;-2.90;89.10;;;;;;5046513;28;20238;-69
2023/02/08 00:23:23;;;;;;;1.70;1.60;;;-2.90;88.70;;;;;;5047444;28;20219;-67
2023/02/08 00:25:50;;;;;;;2.58;2.38;;;-3.00;88.10;;;;;;5046259;28;20210;-69
2023/02/08 00:28:19;;;;;;;2.25;2.15;;;-3.00;88.30;;;;;;5046047;28;20333;-71
2023/02/08 00:30:48;;;;;;;4.00;2.25;;;-3.00;88.50;;;;;;5047298;28;20220;-69
2023/02/08 00:33:15;;;;;;;1.45;1.35;;;-3.10;86.90;;;;;;5047962;28;20218;-68
2023/02/08 00:35:42;;;;;;;3.75;2.75;;;-3.10;87.70;;;;;;5047798;28;20216;-69
2023/02/08 00:38:09;;;;;;;1.27;1.17;;;-3.10;88.00;;;;;;5054719;28;20208;-68
2023/02/08 00:40:35;;;;;;;0.93;0.93;;;-3.20;88.50;;;;;;5054892;28;20231;-68
2023/02/08 00:43:02;;;;;;;2.03;1.58;;;-3.20;89.20;;;;;;5047089;28;20201;-69
2023/02/08 00:45:29;;;;;;;1.40;1.30;;;-3.20;88.30;;;;;;5047331;28;20229;-69
2023/02/08 00:47:57;;;;;;;1.30;1.20;;;-3.20;87.40;;;;;;5046795;28;20597;-69
2023/02/08 00:50:24;;;;;;;2.92;2.45;;;-3.20;86.10;;;;;;5046772;28;20229;-68
2023/02/08 00:52:51;;;;;;;0.70;0.63;;;-3.20;85.80;;;;;;5046053;28;20189;-68
2023/02/08 00:55:18;;;;;;;9.65;2.05;;;-3.20;86.20;;;;;;5046904;28;20201;-69
2023/02/08 00:57:45;;;;;;;6.45;2.72;;;-3.30;85.50;;;;;;5047268;28;20784;-68
2023/02/08 01:00:13;;;;;;;3.10;2.85;;;-3.20;85.70;;;;;;5045636;28;20702;-69
2023/02/08 01:02:39;;;;;;;3.78;2.38;;;-3.30;86.20;;;;;;5046146;28;20196;-68
2023/02/08 01:05:08;;;;;;;1.15;1.15;;;-3.30;87.60;;;;;;5046429;28;20201;-68
2023/02/08 01:07:36;;;;;;;1.33;1.25;;;-3.30;88.00;;;;;;5046773;28;20216;-69
2023/02/08 01:10:03;;;;;;;2.72;1.42;;;-3.30;88.00;;;;;;5045817;28;20203;-68
2023/02/08 01:12:29;;;;;;;1.05;1.05;;;-3.30;88.50;;;;;;5047095;28;20706;-69
2023/02/08 01:14:56;;;;;;;0.98;0.98;;;-3.40;88.00;;;;;;5046986;28;20555;-68
2023/02/08 01:17:23;;;;;;;2.45;2.25;;;-3.40;88.10;;;;;;5044929;28;20228;-68
2023/02/08 01:19:50;;;;;;;0.70;0.70;;;-3.50;87.80;;;;;;5046235;28;20746;-69
2023/02/08 01:22:18;;;;;;;0.80;0.80;;;-3.50;88.70;;;;;;5046487;28;20234;-69
2023/02/08 01:24:44;;;;;;;5.25;2.42;;;-3.50;89.10;;;;;;5046592;28;20208;-68
2023/02/08 01:27:11;;;;;;;1.45;1.45;;;-3.60;89.10;;;;;;5046805;28;20231;-68
2023/02/08 01:29:38;;;;;;;1.13;1.13;;;-3.80;88.80;;;;;;5045598;28;20202;-68
2023/02/08 01:32:05;;;;;;;1.58;1.48;;;-3.70;89.90;;;;;;5045680;28;20246;-67
2023/02/08 01:34:32;;;;;;;1.88;1.77;;;-3.70;90.30;;;;;;5046942;28;20640;-69
2023/02/08 01:36:58;;;;;;;1.05;0.95;;;-3.80;90.40;;;;;;5047974;28;20228;-68
2023/02/08 01:39:26;;;;;;;0.55;0.55;;;-3.70;90.80;;;;;;5053718;28;20203;-68
2023/02/08 01:41:53;;;;;;;1.45;1.45;;;-3.70;91.40;;;;;;5046163;28;20224;-68
2023/02/08 01:44:56;;;;;;;1.73;1.63;;;-3.60;91.30;;;;;;5046506;28;20208;-68
2023/02/08 01:47:23;;;;;;;1.02;1.02;;;-3.60;90.90;;;;;;5022938;28;20235;-68
2023/02/08 01:49:50;;;;;;;2.00;1.90;;;-3.70;90.80;;;;;;5045739;28;20228;-68
2023/02/08 01:52:21;;;;;;;0.95;0.95;;;-3.80;91.20;;;;;;5046595;28;20743;-69
2023/02/08 01:54:52;;;;;;;1.13;1.13;;;-3.80;91.40;;;;;;5046974;28;20200;-68
2023/02/08 01:57:20;;;;;;;1.10;1.10;;;-3.80;91.60;;;;;;5046334;28;20216;-68
2023/02/08 01:59:50;;;;;;;3.25;1.60;;;-3.80;91.50;;;;;;5046748;28;20306;-68
2023/02/08 02:02:20;;;;;;;1.35;1.35;;;-3.80;91.80;;;;;;5049708;28;20228;-69
2023/02/08 02:04:48;;;;;;;1.35;1.27;;;-3.80;92.10;;;;;;5043043;28;20188;-69
2023/02/08 02:07:16;;;;;;;1.45;1.35;;;-3.80;92.30;;;;;;5050455;28;20228;-68
2023/02/08 02:09:47;;;;;;;0.80;0.80;;;-3.80;92.50;;;;;;5049810;28;20200;-69
2023/02/08 02:12:17;;;;;;;1.00;1.00;;;-4.00;92.60;;;;;;5050453;28;20246;-69
2023/02/08 02:14:45;;;;;;;1.33;1.23;;;-3.90;92.60;;;;;;5050280;28;20196;-69
2023/02/08 02:17:16;;;;;;;0.60;0.60;;;-3.80;92.80;;;;;;5050406;28;20242;-68
2023/02/08 02:19:52;;;;;;;2.35;1.60;;;-3.80;92.60;;;;;;5049483;28;20207;-68
2023/02/08 02:22:56;;;;;;;3.70;1.40;;;-3.90;92.60;;;;;;5050476;28;20234;-69
2023/02/08 02:25:51;;;;;;;0.70;0.70;;;-3.90;92.80;;;;;;5049933;28;20266;-69
2023/02/08 02:29:00;;;;;;;1.15;1.05;;;-3.90;93.20;;;;;;5049053;28;20230;-69
2023/02/08 02:31:49;;;;;;;6.47;2.53;;;-3.90;93.00;;;;;;5023757;28;20877;-69
2023/02/08 02:34:26;;;;;;;1.02;0.98;;;-3.90;93.00;;;;;;5049813;28;20561;-69
2023/02/08 02:37:02;;;;;;;4.50;1.55;;;-3.90;92.60;;;;;;5050705;28;20235;-68
2023/02/08 02:39:38;;;;;;;1.35;1.23;;;-3.90;92.90;;;;;;5060619;28;20195;-67
2023/02/08 02:45:06;;;;;;;0.93;0.93;;;-3.90;93.00;;;;;;5049014;28;20192;-69
2023/02/08 02:47:42;;;;;;;2.45;2.00;;;-3.90;93.00;;;;;;5048753;28;20308;-69
2023/02/08 02:50:16;;;;;;;1.70;1.65;;;-3.90;92.80;;;;;;5048026;28;20262;-69
2023/02/08 02:52:51;;;;;;;0.50;0.50;;;-3.90;93.00;;;;;;5049232;28;20199;-69
2023/02/08 02:55:22;;;;;;;1.77;1.67;;;-3.90;93.00;;;;;;5049163;28;20878;-69
2023/02/08 02:57:53;;;;;;;2.10;2.00;;;-4.20;95.30;;;;;;5034754;28;20200;-68
2023/02/08 03:00:25;;;;;;;2.03;1.92;;;-4.20;93.50;;;;;;5047513;28;20200;-68
2023/02/08 03:02:55;;;;;;;0.75;0.75;;;-4.00;93.50;;;;;;5049316;28;20200;-68
2023/02/08 03:05:22;;;;;;;2.95;2.75;;;-4.00;93.30;;;;;;5048580;28;20567;-68
2023/02/08 03:08:17;;;;;;;2.35;1.45;;;-4.00;93.40;;;;;;5048842;28;20206;-68
2023/02/08 03:11:00;;;;;;;4.03;1.83;;;-4.10;93.30;;;;;;5043523;28;20239;-69
2023/02/08 03:13:36;;;;;;;4.05;2.10;;;-4.20;93.60;;;;;;5048954;28;20203;-68
2023/02/08 03:16:14;;;;;;;0.77;0.77;;;-4.10;93.60;;;;;;5048225;28;20230;-68
2023/02/08 03:18:57;;;;;;;1.20;1.20;;;-4.10;93.30;;;;;;5047671;28;20308;-69
2023/02/08 03:21:34;;;;;;;0.70;0.70;;;-4.00;93.40;;;;;;5047987;28;20223;-69
2023/02/08 03:24:07;;;;;;;5.10;1.60;;;-4.10;93.60;;;;;;5048521;28;20195;-68
2023/02/08 03:26:42;;;;;;;1.35;1.27;;;-4.10;93.50;;;;;;5048232;28;20227;-69
2023/02/08 03:29:15;;;;;;;0.95;0.95;;;-4.10;93.60;;;;;;5047047;28;20269;-69
2023/02/08 03:31:47;;;;;;;1.05;1.05;;;-4.20;93.30;;;;;;5047517;28;20232;-69
2023/02/08 03:34:19;;;;;;;0.80;0.80;;;-4.20;93.30;;;;;;5048510;28;20260;-68
2023/02/08 03:36:50;;;;;;;1.30;1.30;;;-4.20;93.80;;;;;;5047755;28;20224;-68
2023/02/08 03:39:22;;;;;;;1.83;1.73;;;-4.20;93.40;;;;;;5046680;28;20196;-68
2023/02/08 03:41:52;;;;;;;1.98;1.88;;;-4.20;93.10;;;;;;5048177;28;20234;-68
2023/02/08 03:44:25;;;;;;;1.73;1.63;;;-4.20;93.00;;;;;;5048188;28;20254;-70
2023/02/08 03:46:56;;;;;;;2.25;2.05;;;-4.30;93.20;;;;;;5048158;28;20232;-67
2023/02/08 03:49:30;;;;;;;0.77;0.77;;;-4.30;93.10;;;;;;5047260;28;20287;-69
2023/02/08 03:52:01;;;;;;;1.25;1.15;;;-4.30;93.30;;;;;;5047715;28;20323;-68
2023/02/08 03:54:34;;;;;;;1.70;1.60;;;-4.20;93.30;;;;;;5047479;28;20198;-69
2023/02/08 03:57:08;;;;;;;1.13;1.13;;;-4.30;92.90;;;;;;5048350;28;20238;-69
2023/02/08 03:59:41;;;;;;;2.10;2.00;;;-4.20;93.10;;;;;;5046394;28;20670;-69
2023/02/08 04:02:13;;;;;;;1.30;1.05;;;-4.30;92.90;;;;;;5047602;28;20706;-68
2023/02/08 04:04:45;;;;;;;0.80;0.80;;;-4.20;92.90;;;;;;5047289;28;20602;-68
2023/02/08 04:07:12;;;;;;;0.90;0.90;;;-4.20;92.70;;;;;;5047687;28;20863;-69
2023/02/08 04:09:39;;;;;;;0.90;0.90;;;-4.30;92.20;;;;;;5046367;28;20196;-68
2023/02/08 04:12:07;;;;;;;0.50;0.50;;;-4.20;92.10;;;;;;5047489;28;20318;-69
2023/02/08 04:14:34;;;;;;;1.15;1.15;;;-4.30;92.00;;;;;;5047178;28;20300;-67
2023/02/08 04:17:01;;;;;;;3.80;2.38;;;-4.40;92.20;;;;;;5046857;28;20227;-68
2023/02/08 04:19:27;;;;;;;0.60;0.60;;;-4.50;92.20;;;;;;5045971;28;20288;-68
2023/02/08 04:21:56;;;;;;;1.23;1.10;;;-4.40;92.40;;;;;;5046484;28;20235;-68
2023/02/08 04:24:23;;;;;;;1.35;1.25;;;-4.40;92.50;;;;;;5047118;28;20200;-68
2023/02/08 04:26:49;;;;;;;0.93;0.93;;;-4.50;92.80;;;;;;5047105;28;20311;-68
2023/02/08 04:29:16;;;;;;;0.90;0.90;;;-4.50;93.00;;;;;;5045949;28;20216;-68
2023/02/08 04:31:43;;;;;;;2.35;2.25;;;-4.50;93.00;;;;;;5046441;28;20224;-69
2023/02/08 04:34:10;;;;;;;1.00;1.00;;;-4.60;93.20;;;;;;5046965;28;20222;-69
2023/02/08 04:36:37;;;;;;;0.98;0.90;;;-4.50;93.80;;;;;;5046632;28;20745;-68
2023/02/08 04:39:05;;;;;;;4.53;1.60;;;-4.50;93.60;;;;;;5063118;28;20291;-68
2023/02/08 04:41:32;;;;;;;2.72;2.63;;;-4.50;93.60;;;;;;5049690;28;20215;-69
2023/02/08 04:43:59;;;;;;;0.70;0.70;;;-4.60;93.60;;;;;;5046508;28;20695;-67
2023/02/08 04:46:26;;;;;;;0.93;0.93;;;-4.60;93.90;;;;;;5046684;28;20607;-69
2023/02/08 04:48:52;;;;;;;1.75;1.65;;;-4.60;94.40;;;;;;5045662;28;20197;-67
2023/02/08 04:51:19;;;;;;;1.05;1.05;;;-4.60;94.60;;;;;;5046467;28;20242;-69
2023/02/08 04:53:46;;;;;;;2.17;1.50;;;-4.60;94.60;;;;;;5047300;28;20200;-68
2023/02/08 04:56:14;;;;;;;0.73;0.73;;;-4.60;94.80;;;;;;5046284;28;20231;-68
2023/02/08 04:58:41;;;;;;;2.15;2.05;;;-4.70;94.60;;;;;;5045315;28;20218;-68
2023/02/08 05:01:09;;;;;;;1.73;1.63;;;-4.70;94.80;;;;;;5046362;28;20224;-68
2023/02/08 05:03:36;;;;;;;1.30;1.20;;;-4.60;94.90;;;;;;5046851;28;20253;-68
2023/02/08 05:06:03;;;;;;;3.08;2.88;;;-4.60;94.80;;;;;;5046709;28;20227;-69
2023/02/08 05:08:30;;;;;;;2.10;2.00;;;-4.60;94.60;;;;;;5044773;28;20200;-68
2023/02/08 05:10:56;;;;;;;4.85;3.30;;;-4.50;94.60;;;;;;5043774;28;20764;-67
2023/02/08 05:13:24;;;;;;;2.10;2.00;;;-4.50;94.70;;;;;;5046476;28;20204;-69
2023/02/08 05:15:51;;;;;;;4.40;4.10;;;-4.40;94.60;;;;;;5045783;28;20223;-69
2023/02/08 05:18:18;;;;;;;1.67;1.58;;;-4.40;94.40;;;;;;5045695;28;20200;-70
2023/02/08 05:20:45;;;;;;;1.27;1.25;;;-4.50;94.30;;;;;;5046392;28;20742;-68
2023/02/08 05:23:12;;;;;;;3.28;2.13;;;-4.50;94.30;;;;;;5046466;28;20701;-68
2023/02/08 05:25:39;;;;;;;0.80;0.80;;;-4.40;94.40;;;;;;5046687;28;20306;-69
2023/02/08 05:28:06;;;;;;;1.55;1.50;;;-4.50;94.30;;;;;;5044677;28;20617;-68
2023/02/08 05:30:34;;;;;;;1.60;1.50;;;-4.50;94.30;;;;;;5046037;28;20221;-69
2023/02/08 05:33:01;;;;;;;5.57;3.50;;;-4.50;94.00;;;;;;5046085;28;20295;-68
2023/02/08 05:35:27;;;;;;;0.98;0.80;;;-4.50;94.10;;;;;;5045968;28;20227;-69
2023/02/08 05:37:54;;;;;;;6.82;2.63;;;-4.50;93.90;;;;;;5048233;28;20196;-70
2023/02/08 05:40:21;;;;;;;2.95;1.95;;;-4.50;93.90;;;;;;5049210;28;20207;-69
2023/02/08 05:42:48;;;;;;;1.10;1.10;;;-4.50;94.00;;;;;;5046297;28;20204;-68
2023/02/08 05:45:15;;;;;;;0.63;0.63;;;-4.50;93.90;;;;;;5045966;28;20200;-67
2023/02/08 05:47:43;;;;;;;2.78;1.35;;;-4.50;94.10;;;;;;5045969;28;20200;-68
2023/02/08 05:50:10;;;;;;;1.27;1.23;;;-4.50;94.20;;;;;;5044971;28;20200;-69
2023/02/08 05:52:37;;;;;;;3.22;3.13;;;-4.50;94.10;;;;;;5045203;28;20234;-69
2023/02/08 05:55:05;;;;;;;0.65;0.65;;;-4.50;94.00;;;;;;5045747;28;20197;-69
2023/02/08 05:57:32;;;;;;;2.22;2.13;;;-4.50;93.40;;;;;;5045115;28;20204;-69
2023/02/08 05:59:59;;;;;;;0.88;0.88;;;-4.50;93.20;;;;;;5044471;28;20556;-68
2023/02/08 06:02:25;;;;;;;3.10;2.00;;;-4.60;93.40;;;;;;5046052;28;20222;-68
2023/02/08 06:04:54;;;;;;;1.38;1.27;;;-4.50;93.50;;;;;;5045851;28;20196;-68
2023/02/08 06:07:20;;;;;;;1.30;1.15;;;-4.50;93.20;;;;;;5046010;28;20240;-69
2023/02/08 06:09:47;;;;;;;1.33;1.23;;;-4.50;92.90;;;;;;5044165;28;20192;-68
2023/02/08 06:12:14;;;;;;;1.52;1.42;;;-4.50;93.00;;;;;;5045665;28;20239;-69
2023/02/08 06:14:41;;;;;;;0.70;0.70;;;-4.60;93.20;;;;;;5045660;28;20200;-68
2023/02/08 06:17:07;;;;;;;0.70;0.70;;;-4.80;93.60;;;;;;5043644;28;20324;-68
2023/02/08 06:19:34;;;;;;;1.77;1.70;;;-4.70;93.80;;;;;;5044116;28;20203;-67
2023/02/08 06:22:02;;;;;;;6.35;3.58;;;-4.60;93.60;;;;;;5045793;28;20230;-69
2023/02/08 06:24:29;;;;;;;1.20;1.20;;;-4.60;93.40;;;;;;5045056;28;20204;-68
2023/02/08 06:26:57;;;;;;;0.80;0.80;;;-4.60;93.20;;;;;;5046150;28;20220;-68
2023/02/08 06:29:23;;;;;;;5.28;2.38;;;-4.60;93.00;;;;;;5044765;28;20203;-68
2023/02/08 06:31:50;;;;;;;3.33;3.22;;;-4.60;93.30;;;;;;5045263;28;20291;-68
2023/02/08 06:34:17;;;;;;;1.40;1.40;;;-4.60;93.10;;;;;;5046315;28;20200;-68
2023/02/08 06:36:44;;;;;;;2.05;1.85;;;-4.70;92.90;;;;;;5046030;28;20218;-66
2023/02/08 06:39:12;;;;;;;1.02;1.02;;;-4.60;93.00;;;;;;5050618;28;20672;-68
2023/02/08 06:41:39;;;;;;;1.30;1.30;;;-4.60;93.00;;;;;;5045510;28;20710;-67
2023/02/08 06:44:06;;;;;;;1.92;1.77;;;-4.70;93.00;;;;;;5040366;28;20846;-68
2023/02/08 06:46:33;;;;;;;1.95;1.50;;;-4.60;92.70;;;;;;5048409;28;20224;-69
2023/02/08 06:49:00;;;;;;;4.50;1.77;;;-4.60;92.80;;;;;;5047217;28;20275;-68
2023/02/08 06:51:27;;;;;;;2.65;2.55;;;-4.60;92.30;;;;;;5048041;28;20236;-68
2023/02/08 06:53:53;;;;;;;0.80;0.80;;;-4.40;91.70;;;;;;5048272;28;20192;-69
2023/02/08 06:56:22;;;;;;;1.25;1.25;;;-4.40;91.40;;;;;;5046211;28;20224;-69
2023/02/08 06:58:48;;;;;;;2.28;2.00;;;-4.40;91.00;;;;;;5045679;28;20200;-68
2023/02/08 07:01:15;;;;;;;3.88;1.80;;;-4.40;90.70;;;;;;5049265;28;20232;-68
2023/02/08 07:03:42;;;;;;;1.38;1.38;;;-4.30;90.50;;;;;;5049020;28;20192;-67
2023/02/08 07:06:13;;;;;;;1.58;1.48;;;-4.20;90.10;;;;;;5048408;28;20226;-68
2023/02/08 07:08:39;;;;;;;0.50;0.50;;;-4.30;90.00;;;;;;5048737;28;20207;-68
2023/02/08 07:11:26;;;;;;;1.75;1.67;;;-4.20;89.60;;;;;;5048585;28;20248;-69
2023/02/08 07:13:54;;;;;;;2.53;2.35;;;-4.10;88.90;;;;;;5047293;28;20691;-68
2023/02/08 07:16:21;;;;;;;1.17;1.17;;;-4.00;88.80;;;;;;5047524;28;20220;-69
2023/02/08 07:18:48;;;;;;;0.82;0.82;;;-3.90;88.50;;;;;;5039603;28;20199;-68
2023/02/08 07:21:15;;;;;;;2.40;2.30;;;-3.90;88.00;;;;;;5048707;28;20219;-68
2023/02/08 07:23:42;;;;;;;1.98;1.85;;;-3.60;87.20;;;;;;5047296;28;20200;-68
2023/02/08 07:26:13;;;;;;;1.48;1.45;;;-3.40;85.30;;;;;;5048920;28;20220;-68
2023/02/08 07:28:41;;;;;;;2.72;2.55;;;-3.30;84.20;;;;;;5047998;28;20649;-69
2023/02/08 07:31:09;;;;;;;1.98;1.67;;;-3.30;83.00;;;;;;5048083;28;20247;-68
2023/02/08 07:33:36;;;;;;;0.50;0.50;;;-3.20;83.10;;;;;;5048597;28;20238;-69
2023/02/08 07:36:04;;;;;;;0.70;0.70;;;-3.00;83.60;;;;;;5048738;28;20582;-68
2023/02/08 07:38:31;;;;;;;0.95;0.95;;;-3.10;83.10;;;;;;5051075;28;20287;-68
2023/02/08 07:41:01;;;;;;;0.65;0.65;;;-3.10;83.30;;;;;;5055359;28;20229;-68
2023/02/08 07:43:40;;;;;;;1.13;1.13;;;-3.00;83.40;;;;;;5048167;28;20212;-71
2023/02/08 07:46:10;;;;;;;1.00;1.00;;;-2.80;82.30;;;;;;5047472;28;20318;-68
2023/02/08 07:48:37;;;;;;;1.58;0.93;;;-2.70;79.70;;;;;;5048085;28;20210;-68
2023/02/08 07:51:04;;;;;;;1.70;1.60;;;-2.60;80.30;;;;;;5049047;28;20217;-68
2023/02/08 07:53:31;;;;;;;1.13;1.10;;;-2.60;79.50;;;;;;5048548;28;20225;-69
2023/02/08 07:55:58;;;;;;;2.13;1.95;;;-2.40;78.90;;;;;;5048482;28;20221;-69
2023/02/08 07:58:26;;;;;;;2.20;2.00;;;-2.20;77.30;;;;;;5034260;28;20204;-69
2023/02/08 08:00:53;;;;;;;1.90;1.80;;;-2.20;75.20;;;;;;5040998;28;20221;-69
2023/02/08 08:03:24;;;;;;;4.03;2.70;;;-2.20;77.70;;;;;;5040040;28;20204;-70
2023/02/08 08:05:51;;;;;;;6.13;2.00;;;-2.20;77.90;;;;;;5040408;28;20227;-69
2023/02/08 08:08:17;;;;;;;2.58;1.48;;;-2.20;77.70;;;;;;5040920;28;20213;-69
2023/02/08 08:10:45;;;;;;;1.85;1.58;;;-2.10;76.00;;;;;;5042879;28;20732;-69
2023/02/08 08:13:12;;;;;;;0.70;0.70;;;-2.00;77.00;;;;;;5042380;28;20241;-68
2023/02/08 08:15:39;;;;;;;3.10;1.77;;;-1.80;77.00;;;;;;5047827;28;20958;-67
2023/02/08 08:18:06;;;;;;;1.27;1.27;;;-1.70;75.80;;;;;;5046187;28;20209;-68
2023/02/08 08:20:34;;;;;;;0.70;0.70;;;-1.50;75.60;;;;;;5047289;28;20222;-68
2023/02/08 08:23:01;;;;;;;3.03;1.40;;;-1.40;74.20;;;;;;5047738;28;20203;-70
2023/02/08 08:25:28;;;;;;;1.05;1.05;;;-1.40;73.50;;;;;;5046573;28;20257;-69
2023/02/08 08:27:55;;;;;;;0.50;0.50;;;-1.30;74.10;;;;;;5047221;28;20200;-69
2023/02/08 08:30:22;;;;;;;2.60;2.00;;;-1.20;72.80;;;;;;5046826;28;20206;-68
2023/02/08 08:32:49;;;;;;;2.75;2.65;;;-1.20;71.50;;;;;;5047565;28;20218;-68
2023/02/08 08:35:16;;;;;;;1.02;0.98;;;-1.20;73.00;;;;;;5046843;28;20204;-68
2023/02/08 08:37:44;;;;;;;3.15;1.45;;;-0.90;72.50;;;;;;5052193;28;20287;-69
2023/02/08 08:40:11;;;;;;;1.65;1.27;;;-1.00;71.40;;;;;;5046833;28;20205;-68
2023/02/08 08:42:39;;;;;;;3.45;3.15;;;-0.70;74.10;;;;;;5043559;28;20209;-68
2023/02/08 08:45:06;;;;;;;3.65;3.28;;;-0.70;70.60;;;;;;5046615;28;20260;-69
2023/02/08 08:47:33;;;;;;;3.40;3.15;;;-0.60;69.50;;;;;;5045647;28;20210;-68
2023/02/08 08:50:00;;;;;;;3.80;1.27;;;-0.50;67.80;;;;;;5045932;28;20192;-69
2023/02/08 08:52:27;;;;;;;1.05;1.05;;;-0.50;69.90;;;;;;5046621;28;20242;-69
2023/02/08 08:54:55;;;;;;;4.93;1.58;;;-0.50;68.50;;;;;;5046303;28;20203;-68
2023/02/08 08:57:22;;;;;;;1.83;1.05;;;-0.40;68.80;;;;;;5045497;28;20224;-70
2023/02/08 08:59:48;;;;;;;1.15;1.05;;;-0.40;68.20;;;;;;5044791;28;20287;-68
2023/02/08 09:02:15;;;;;;;5.00;3.60;;;-0.30;68.50;;;;;;5046457;28;20231;-69
2023/02/08 09:04:42;;;;;;;2.22;1.90;;;-0.10;69.20;;;;;;5046338;28;20192;-70
2023/02/08 09:07:10;;;;;;;1.98;1.83;;;-0.10;66.70;;;;;;5046944;28;20224;-69
2023/02/08 09:09:37;;;;;;;7.03;3.20;;;-0.10;67.40;;;;;;5045257;28;20200;-68
2023/02/08 09:12:05;;;;;;;1.70;1.60;;;0.10;67.00;;;;;;5046685;28;20309;-68
2023/02/08 09:14:33;;;;;;;2.10;1.90;;;0.50;71.70;;;;;;5045858;28;20211;-69
2023/02/08 09:16:59;;;;;;;1.08;1.00;;;-0.10;67.70;;;;;;5046250;28;20238;-69
2023/02/08 09:19:27;;;;;;;4.13;2.85;;;-0.10;67.70;;;;;;5044377;28;20206;-69
2023/02/08 09:21:54;;;;;;;1.10;1.00;;;0.00;67.50;;;;;;5046853;28;20226;-69
2023/02/08 09:24:21;;;;;;;3.03;1.13;;;0.00;65.40;;;;;;5047084;28;20203;-68
2023/02/08 09:26:48;;;;;;;4.53;0.93;;;0.10;64.90;;;;;;5046952;28;20220;-69
2023/02/08 09:29:16;;;;;;;6.57;1.65;;;0.20;64.40;;;;;;5045222;28;20202;-69
2023/02/08 09:31:42;;;;;;;6.90;2.42;;;0.20;65.20;;;;;;5046758;28;20212;-66
2023/02/08 09:34:09;;;;;;;1.45;1.35;;;0.30;65.00;;;;;;5046155;28;20227;-67
2023/02/08 09:36:38;;;;;;;1.58;1.48;;;0.50;64.00;;;;;;5046239;28;20216;-66
2023/02/08 09:39:08;;;;;;;0.50;0.50;;;0.50;63.40;;;;;;5049889;28;20218;-69
2023/02/08 09:41:57;;;;;;;2.85;1.67;;;0.60;64.80;;;;;;5043199;28;20736;-66
2023/02/08 09:44:34;;;;;;;1.30;0.90;;;0.70;65.00;;;;;;5037043;28;20212;-67
2023/02/08 09:47:06;;;;;;;0.73;0.73;;;0.70;62.90;;;;;;5036049;28;20226;-67
2023/02/08 09:49:38;;;;;;;0.65;0.65;;;0.70;63.90;;;;;;5044689;28;20196;-68
2023/02/08 09:52:10;;;;;;;2.90;1.38;;;0.90;63.50;;;;;;5046580;28;20318;-66
2023/02/08 09:54:40;;;;;;;1.42;1.42;;;0.90;63.20;;;;;;5034406;28;20648;-67
2023/02/08 09:57:16;;;;;;;2.53;1.83;;;0.90;64.30;;;;;;5046441;28;20219;-67
2023/02/08 09:59:58;;;;;;;1.52;1.42;;;0.90;65.00;;;;;;5045987;28;20206;-67
2023/02/08 10:02:27;;;;;;;0.85;0.85;;;1.10;63.90;;;;;;5043875;28;20687;-69
2023/02/08 10:05:01;;;;;;;5.55;1.75;;;1.00;61.60;;;;;;5044803;28;20195;-66
2023/02/08 10:07:28;;;;;;;1.65;1.10;;;1.00;61.60;;;;;;5043925;28;20230;-66
2023/02/08 10:09:57;;;;;;;1.70;1.60;;;1.10;62.90;;;;;;5044304;28;20202;-67
2023/02/08 10:12:35;;;;;;;1.98;1.88;;;1.00;62.20;;;;;;5045833;28;20235;-67
2023/02/08 10:15:16;;;;;;;4.30;2.70;;;1.10;61.40;;;;;;5046075;28;20198;-67
2023/02/08 10:18:01;;;;;;;3.75;3.47;;;1.10;61.60;;;;;;5045214;28;20291;-68
2023/02/08 10:20:43;;;;;;;1.70;1.60;;;1.10;63.30;;;;;;5047236;28;20255;-66
2023/02/08 10:23:25;;;;;;;2.05;1.90;;;1.30;63.80;;;;;;5050339;28;20206;-66
2023/02/08 10:26:06;;;;;;;0.95;0.95;;;1.30;63.10;;;;;;5050099;28;20222;-66
2023/02/08 10:28:57;;;;;;;4.22;1.75;;;0.90;67.20;;;;;;5049672;28;20200;-67
2023/02/08 10:31:38;;;;;;;2.35;2.15;;;1.00;68.80;;;;;;5049561;28;20222;-67
2023/02/08 10:34:19;;;;;;;8.13;1.77;;;1.10;68.40;;;;;;5050597;28;20783;-67
2023/02/08 10:36:46;;;;;;;0.88;0.88;;;1.00;69.10;;;;;;5045944;28;20307;-67
2023/02/08 10:39:16;;;;;;;2.63;2.15;;;0.90;69.90;;;;;;5047288;28;20304;-67
2023/02/08 10:41:44;;;;;;;2.05;1.25;;;0.50;68.50;;;;;;5050066;28;20223;-67
2023/02/08 10:44:24;;;;;;;2.17;1.55;;;0.80;70.10;;;;;;5049967;28;20636;-66
2023/02/08 10:46:59;;;;;;;2.17;2.08;;;0.80;69.70;;;;;;5041528;28;20671;-67
2023/02/08 10:49:34;;;;;;;2.53;2.42;;;1.00;68.80;;;;;;5048663;28;20294;-67
2023/02/08 10:52:02;;;;;;;1.52;1.42;;;1.20;66.80;;;;;;5046099;28;20294;-67
2023/02/08 10:54:29;;;;;;;5.10;2.20;;;1.20;65.00;;;;;;5045528;28;20306;-68
2023/02/08 10:57:01;;;;;;;1.90;1.20;;;1.40;64.90;;;;;;5043251;28;20247;-68
2023/02/08 10:59:32;;;;;;;0.63;0.63;;;1.40;64.20;;;;;;5032633;28;20203;-68
2023/02/08 11:02:00;;;;;;;4.80;1.73;;;1.50;64.90;;;;;;5034662;28;20724;-68
2023/02/08 11:04:27;;;;;;;3.05;2.78;;;1.40;64.70;;;;;;5047432;28;20589;-67
2023/02/08 11:06:54;;;;;;;7.70;5.17;;;1.40;65.70;;;;;;5047335;28;20751;-67
2023/02/08 11:09:24;;;;;;;1.83;1.38;;;1.50;64.30;;;;;;5049050;28;20627;-68
2023/02/08 11:11:52;;;;;;;2.45;2.22;;;1.60;64.10;;;;;;5045373;28;20230;-69
2023/02/08 11:14:23;;;;;;;1.65;1.55;;;1.60;64.80;;;;;;5047515;28;20234;-68
2023/02/08 11:16:52;;;;;;;2.70;1.90;;;1.80;64.60;;;;;;5048748;28;20216;-68
2023/02/08 11:19:32;;;;;;;1.25;1.08;;;1.70;63.00;;;;;;5048693;28;20617;-67
2023/02/08 11:22:00;;;;;;;1.33;1.33;;;1.70;64.40;;;;;;5049727;28;20219;-67
2023/02/08 11:24:34;;;;;;;2.78;2.17;;;1.70;63.50;;;;;;5048096;28;20192;-68
2023/02/08 11:27:02;;;;;;;4.63;2.38;;;1.70;64.00;;;;;;5048096;28;20307;-67
2023/02/08 11:29:30;;;;;;;1.63;1.35;;;1.70;65.00;;;;;;5034326;28;20242;-68
2023/02/08 11:32:00;;;;;;;2.65;1.35;;;1.70;64.90;;;;;;5039587;28;20228;-67
2023/02/08 11:34:31;;;;;;;8.05;2.22;;;1.70;64.00;;;;;;5049611;28;20646;-68
2023/02/08 11:37:00;;;;;;;3.35;2.33;;;1.70;63.80;;;;;;5049597;28;20243;-67
2023/02/08 11:39:39;;;;;;;8.32;5.65;;;1.70;64.10;;;;;;5056766;28;20829;-69
2023/02/08 11:42:07;;;;;;;4.10;3.05;;;1.80;65.20;;;;;;5068892;28;20235;-68
2023/02/08 11:44:36;;;;;;;2.75;2.58;;;1.90;64.20;;;;;;5048015;28;20196;-68
2023/02/08 11:47:15;;;;;;;3.92;2.35;;;1.90;63.10;;;;;;5048481;28;20234;-69
2023/02/08 11:49:51;;;;;;;1.08;0.85;;;1.90;63.80;;;;;;5043742;28;20204;-69
2023/02/08 11:52:21;;;;;;;2.10;1.15;;;2.30;61.10;;;;;;5047069;28;20339;-67
2023/02/08 11:54:48;;;;;;;4.03;1.65;;;2.30;61.00;;;;;;5046125;28;20311;-68
2023/02/08 11:57:18;;;;;;;0.98;0.98;;;2.40;59.70;;;;;;5046869;28;20232;-68
2023/02/08 11:59:45;;;;;;;2.60;2.20;;;2.50;59.70;;;;;;5047332;28;20200;-69
2023/02/08 12:02:28;;;;;;;1.67;1.58;;;2.40;59.90;;;;;;5051698;28;20215;-68
2023/02/08 12:04:56;;;;;;;0.70;0.70;;;2.30;60.30;;;;;;5051104;28;20223;-68
2023/02/08 12:07:32;;;;;;;0.60;0.50;;;2.40;60.90;;;;;;5042495;28;20228;-67
2023/02/08 12:10:21;;;;;;;1.25;1.10;;;2.40;60.40;;;;;;5038066;28;20204;-69
2023/02/08 12:13:28;;;;;;;1.45;1.33;;;2.40;59.70;;;;;;5041378;28;20200;-69
2023/02/08 12:16:03;;;;;;;0.73;0.73;;;2.40;60.40;;;;;;4997565;28;20225;-69
2023/02/08 12:18:53;;;;;;;3.25;1.00;;;2.50;60.20;;;;;;5002786;28;20207;-69
2023/02/08 12:21:26;;;;;;;0.60;0.60;;;2.50;59.60;;;;;;5026004;28;20238;-69
2023/02/08 12:23:56;;;;;;;0.90;0.75;;;2.50;60.00;;;;;;5046610;28;20203;-67
2023/02/08 12:26:46;;;;;;;1.13;0.50;;;2.60;59.90;;;;;;5047032;28;20804;-68
2023/02/08 12:29:28;;;;;;;1.17;1.08;;;2.60;59.70;;;;;;5033781;28;20489;-69
2023/02/08 12:32:06;;;;;;;1.92;1.52;;;2.60;60.40;;;;;;5044618;28;20722;-69
2023/02/08 12:34:49;;;;;;;1.25;1.15;;;2.70;60.10;;;;;;5047430;28;20230;-68
2023/02/08 12:43:24;;;;;;;1.02;1.00;;;2.70;60.30;;;;;;5043068;28;20253;-68
2023/02/08 12:46:05;;;;;;;3.05;1.55;;;2.70;62.10;;;;;;5046587;28;20223;-67
2023/02/08 12:48:54;;;;;;;1.40;1.35;;;2.70;62.50;;;;;;5046098;28;20200;-67
2023/02/08 12:51:30;;;;;;;7.25;1.55;;;2.80;62.60;;;;;;5046383;28;20224;-68
2023/02/08 12:54:04;;;;;;;7.82;1.77;;;2.90;61.80;;;;;;5046547;28;20227;-67
2023/02/08 12:56:35;;;;;;;0.82;0.60;;;2.90;61.80;;;;;;5046856;28;20227;-67
2023/02/08 12:59:04;;;;;;;1.45;1.35;;;2.80;62.60;;;;;;5046238;28;20200;-66
2023/02/08 13:01:35;;;;;;;1.27;1.17;;;2.90;62.00;;;;;;5047030;28;20227;-67
2023/02/08 13:04:07;;;;;;;3.28;1.30;;;2.90;62.40;;;;;;5051045;28;20325;-67
2023/02/08 13:06:40;;;;;;;1.55;1.45;;;3.10;61.10;;;;;;5045994;28;20572;-67
2023/02/08 13:09:17;;;;;;;1.35;1.25;;;3.00;60.70;;;;;;5045849;28;20200;-67
2023/02/08 13:11:52;;;;;;;3.53;1.20;;;2.90;61.20;;;;;;5045301;28;20215;-68
2023/02/08 13:14:30;;;;;;;1.15;1.05;;;2.90;62.10;;;;;;5043289;28;20238;-67
2023/02/08 13:17:04;;;;;;;0.50;0.50;;;2.90;62.40;;;;;;5045636;28;20690;-67